sensor_id;sensor_type;location;lat;lon;timestamp;P1;durP1;ratioP1;P2;durP2;ratioP2
42420;SDS011;28063;48.140;11.588;2023-12-04T00:02:17;15.25;;;7.75;;
42420;SDS011;28063;48.140;11.588;2023-12-04T00:04:47;15.13;;;7.57;;
42420;SDS011;28063;48.140;11.588;2023-12-04T00:07:13;14.57;;;7.90;;
42420;SDS011;28063;48.140;11.588;2023-12-04T00:09:39;14.65;;;8.48;;
42420;SDS011;28063;48.140;11.588;2023-12-04T00:12:05;15.63;;;7.80;;
42420;SDS011;28063;48.140;11.588;2023-12-04T00:14:31;14.30;;;7.55;;
42420;SDS011;28063;48.140;11.588;2023-12-04T00:16:57;14.43;;;6.82;;
42420;SDS011;28063;48.140;11.588;2023-12-04T00:19:23;12.25;;;6.22;;
42420;SDS011;28063;48.140;11.588;2023-12-04T00:21:50;14.80;;;7.97;;
42420;SDS011;28063;48.140;11.588;2023-12-04T00:24:16;12.65;;;6.30;;
42420;SDS011;28063;48.140;11.588;2023-12-04T00:26:43;12.77;;;6.88;;
42420;SDS011;28063;48.140;11.588;2023-12-04T00:29:09;12.32;;;6.22;;
42420;SDS011;28063;48.140;11.588;2023-12-04T00:31:35;9.57;;;5.30;;
42420;SDS011;28063;48.140;11.588;2023-12-04T00:34:01;10.60;;;5.63;;
42420;SDS011;28063;48.140;11.588;2023-12-04T00:36:31;12.98;;;6.82;;
42420;SDS011;28063;48.140;11.588;2023-12-04T00:38:57;14.45;;;7.10;;
42420;SDS011;28063;48.140;11.588;2023-12-04T00:41:23;13.93;;;7.15;;
42420;SDS011;28063;48.140;11.588;2023-12-04T00:43:49;13.75;;;6.55;;
42420;SDS011;28063;48.140;11.588;2023-12-04T00:46:15;12.70;;;5.78;;
42420;SDS011;28063;48.140;11.588;2023-12-04T00:48:42;10.98;;;6.18;;
42420;SDS011;28063;48.140;11.588;2023-12-04T00:51:08;10.93;;;5.57;;
42420;SDS011;28063;48.140;11.588;2023-12-04T00:53:34;11.90;;;5.82;;
42420;SDS011;28063;48.140;11.588;2023-12-04T00:56:00;9.40;;;5.53;;
42420;SDS011;28063;48.140;11.588;2023-12-04T00:58:26;10.07;;;5.18;;
42420;SDS011;28063;48.140;11.588;2023-12-04T01:00:52;10.57;;;5.13;;
42420;SDS011;28063;48.140;11.588;2023-12-04T01:03:18;9.95;;;5.57;;
42420;SDS011;28063;48.140;11.588;2023-12-04T01:05:45;10.18;;;5.40;;
42420;SDS011;28063;48.140;11.588;2023-12-04T01:08:11;7.32;;;4.85;;
42420;SDS011;28063;48.140;11.588;2023-12-04T01:10:38;10.52;;;5.47;;
42420;SDS011;28063;48.140;11.588;2023-12-04T01:13:04;8.05;;;4.80;;
42420;SDS011;28063;48.140;11.588;2023-12-04T01:15:30;8.70;;;4.53;;
42420;SDS011;28063;48.140;11.588;2023-12-04T01:17:57;8.68;;;4.93;;
42420;SDS011;28063;48.140;11.588;2023-12-04T01:20:25;9.63;;;5.00;;
42420;SDS011;28063;48.140;11.588;2023-12-04T01:22:51;10.90;;;4.35;;
42420;SDS011;28063;48.140;11.588;2023-12-04T01:25:17;9.05;;;4.78;;
42420;SDS011;28063;48.140;11.588;2023-12-04T01:27:44;8.38;;;4.85;;
42420;SDS011;28063;48.140;11.588;2023-12-04T01:30:10;8.73;;;4.25;;
42420;SDS011;28063;48.140;11.588;2023-12-04T01:32:37;9.05;;;4.57;;
42420;SDS011;28063;48.140;11.588;2023-12-04T01:35:03;8.35;;;4.40;;
42420;SDS011;28063;48.140;11.588;2023-12-04T01:37:30;11.13;;;5.18;;
42420;SDS011;28063;48.140;11.588;2023-12-04T01:39:56;8.52;;;4.00;;
42420;SDS011;28063;48.140;11.588;2023-12-04T01:42:23;7.13;;;4.25;;
42420;SDS011;28063;48.140;11.588;2023-12-04T01:44:49;8.32;;;4.57;;
42420;SDS011;28063;48.140;11.588;2023-12-04T01:47:16;7.63;;;3.85;;
42420;SDS011;28063;48.140;11.588;2023-12-04T01:49:43;8.77;;;4.15;;
42420;SDS011;28063;48.140;11.588;2023-12-04T01:52:10;7.22;;;4.22;;
42420;SDS011;28063;48.140;11.588;2023-12-04T01:54:36;9.02;;;4.82;;
42420;SDS011;28063;48.140;11.588;2023-12-04T01:57:02;11.63;;;6.00;;
42420;SDS011;28063;48.140;11.588;2023-12-04T01:59:29;7.50;;;4.22;;
42420;SDS011;28063;48.140;11.588;2023-12-04T02:01:55;7.68;;;4.65;;
42420;SDS011;28063;48.140;11.588;2023-12-04T02:04:21;6.80;;;4.25;;
42420;SDS011;28063;48.140;11.588;2023-12-04T02:06:47;7.18;;;4.30;;
42420;SDS011;28063;48.140;11.588;2023-12-04T02:09:14;6.75;;;3.72;;
42420;SDS011;28063;48.140;11.588;2023-12-04T02:11:41;7.45;;;3.45;;
42420;SDS011;28063;48.140;11.588;2023-12-04T02:14:07;6.38;;;3.40;;
42420;SDS011;28063;48.140;11.588;2023-12-04T02:16:35;7.40;;;3.08;;
42420;SDS011;28063;48.140;11.588;2023-12-04T02:19:05;8.63;;;4.00;;
42420;SDS011;28063;48.140;11.588;2023-12-04T02:21:32;7.13;;;4.38;;
42420;SDS011;28063;48.140;11.588;2023-12-04T02:23:59;8.27;;;4.38;;
42420;SDS011;28063;48.140;11.588;2023-12-04T02:26:27;6.00;;;4.03;;
42420;SDS011;28063;48.140;11.588;2023-12-04T02:28:55;9.57;;;4.60;;
42420;SDS011;28063;48.140;11.588;2023-12-04T02:31:24;6.22;;;4.25;;
42420;SDS011;28063;48.140;11.588;2023-12-04T02:33:52;6.35;;;3.33;;
42420;SDS011;28063;48.140;11.588;2023-12-04T02:36:18;6.70;;;3.45;;
42420;SDS011;28063;48.140;11.588;2023-12-04T02:38:45;6.32;;;3.38;;
42420;SDS011;28063;48.140;11.588;2023-12-04T02:41:11;6.20;;;3.65;;
42420;SDS011;28063;48.140;11.588;2023-12-04T02:43:37;9.48;;;4.80;;
42420;SDS011;28063;48.140;11.588;2023-12-04T02:46:04;9.75;;;5.70;;
42420;SDS011;28063;48.140;11.588;2023-12-04T02:48:30;8.45;;;4.68;;
42420;SDS011;28063;48.140;11.588;2023-12-04T02:50:56;9.02;;;4.53;;
42420;SDS011;28063;48.140;11.588;2023-12-04T02:53:22;9.27;;;4.88;;
42420;SDS011;28063;48.140;11.588;2023-12-04T02:55:48;7.55;;;4.25;;
42420;SDS011;28063;48.140;11.588;2023-12-04T02:58:14;8.93;;;4.63;;
42420;SDS011;28063;48.140;11.588;2023-12-04T03:00:40;8.13;;;4.85;;
42420;SDS011;28063;48.140;11.588;2023-12-04T03:03:06;9.63;;;4.78;;
42420;SDS011;28063;48.140;11.588;2023-12-04T03:05:32;6.70;;;4.53;;
42420;SDS011;28063;48.140;11.588;2023-12-04T03:07:59;8.77;;;4.60;;
42420;SDS011;28063;48.140;11.588;2023-12-04T03:10:25;8.75;;;4.38;;
42420;SDS011;28063;48.140;11.588;2023-12-04T03:12:51;7.97;;;4.60;;
42420;SDS011;28063;48.140;11.588;2023-12-04T03:15:17;8.57;;;4.93;;
42420;SDS011;28063;48.140;11.588;2023-12-04T03:17:43;8.60;;;4.85;;
42420;SDS011;28063;48.140;11.588;2023-12-04T03:20:09;10.65;;;5.30;;
42420;SDS011;28063;48.140;11.588;2023-12-04T03:22:36;12.75;;;6.15;;
42420;SDS011;28063;48.140;11.588;2023-12-04T03:25:03;12.38;;;5.97;;
42420;SDS011;28063;48.140;11.588;2023-12-04T03:27:29;9.40;;;5.13;;
42420;SDS011;28063;48.140;11.588;2023-12-04T03:29:55;12.10;;;6.80;;
42420;SDS011;28063;48.140;11.588;2023-12-04T03:32:22;11.90;;;5.85;;
42420;SDS011;28063;48.140;11.588;2023-12-04T03:34:48;14.77;;;6.38;;
42420;SDS011;28063;48.140;11.588;2023-12-04T03:37:14;13.95;;;7.13;;
42420;SDS011;28063;48.140;11.588;2023-12-04T03:39:40;12.32;;;6.05;;
42420;SDS011;28063;48.140;11.588;2023-12-04T03:42:06;10.73;;;6.03;;
42420;SDS011;28063;48.140;11.588;2023-12-04T03:44:32;12.45;;;6.13;;
42420;SDS011;28063;48.140;11.588;2023-12-04T03:46:59;10.68;;;5.07;;
42420;SDS011;28063;48.140;11.588;2023-12-04T03:49:25;13.48;;;6.40;;
42420;SDS011;28063;48.140;11.588;2023-12-04T03:51:51;13.77;;;6.75;;
42420;SDS011;28063;48.140;11.588;2023-12-04T03:54:17;10.45;;;5.88;;
42420;SDS011;28063;48.140;11.588;2023-12-04T03:56:43;9.48;;;5.38;;
42420;SDS011;28063;48.140;11.588;2023-12-04T03:59:10;12.18;;;6.55;;
42420;SDS011;28063;48.140;11.588;2023-12-04T04:01:36;10.70;;;5.95;;
42420;SDS011;28063;48.140;11.588;2023-12-04T04:04:02;11.38;;;6.20;;
42420;SDS011;28063;48.140;11.588;2023-12-04T04:06:28;12.40;;;5.78;;
42420;SDS011;28063;48.140;11.588;2023-12-04T04:08:54;9.85;;;5.43;;
42420;SDS011;28063;48.140;11.588;2023-12-04T04:11:20;11.80;;;6.18;;
42420;SDS011;28063;48.140;11.588;2023-12-04T04:13:47;11.75;;;6.82;;
42420;SDS011;28063;48.140;11.588;2023-12-04T04:16:16;15.30;;;7.25;;
42420;SDS011;28063;48.140;11.588;2023-12-04T04:18:42;15.05;;;8.00;;
42420;SDS011;28063;48.140;11.588;2023-12-04T04:21:08;16.33;;;7.38;;
42420;SDS011;28063;48.140;11.588;2023-12-04T04:23:35;18.67;;;8.90;;
42420;SDS011;28063;48.140;11.588;2023-12-04T04:26:01;16.08;;;7.75;;
42420;SDS011;28063;48.140;11.588;2023-12-04T04:28:27;14.63;;;7.57;;
42420;SDS011;28063;48.140;11.588;2023-12-04T04:30:53;15.73;;;7.80;;
42420;SDS011;28063;48.140;11.588;2023-12-04T04:33:19;18.38;;;9.32;;
42420;SDS011;28063;48.140;11.588;2023-12-04T04:35:46;16.40;;;7.80;;
42420;SDS011;28063;48.140;11.588;2023-12-04T04:38:12;11.88;;;6.88;;
42420;SDS011;28063;48.140;11.588;2023-12-04T04:40:38;13.15;;;7.25;;
42420;SDS011;28063;48.140;11.588;2023-12-04T04:43:07;14.80;;;7.15;;
42420;SDS011;28063;48.140;11.588;2023-12-04T04:45:33;12.20;;;6.30;;
42420;SDS011;28063;48.140;11.588;2023-12-04T04:47:59;12.13;;;6.55;;
42420;SDS011;28063;48.140;11.588;2023-12-04T04:50:25;9.73;;;5.95;;
42420;SDS011;28063;48.140;11.588;2023-12-04T04:52:51;13.32;;;6.22;;
42420;SDS011;28063;48.140;11.588;2023-12-04T04:55:17;11.05;;;4.97;;
42420;SDS011;28063;48.140;11.588;2023-12-04T04:57:44;10.07;;;5.45;;
42420;SDS011;28063;48.140;11.588;2023-12-04T05:00:10;11.88;;;5.30;;
42420;SDS011;28063;48.140;11.588;2023-12-04T05:02:36;9.57;;;5.32;;
42420;SDS011;28063;48.140;11.588;2023-12-04T05:05:03;11.32;;;5.85;;
42420;SDS011;28063;48.140;11.588;2023-12-04T05:07:29;10.10;;;5.60;;
42420;SDS011;28063;48.140;11.588;2023-12-04T05:09:56;10.75;;;5.25;;
42420;SDS011;28063;48.140;11.588;2023-12-04T05:12:22;11.95;;;6.13;;
42420;SDS011;28063;48.140;11.588;2023-12-04T05:14:48;12.85;;;5.82;;
42420;SDS011;28063;48.140;11.588;2023-12-04T05:17:14;13.75;;;6.43;;
42420;SDS011;28063;48.140;11.588;2023-12-04T05:19:40;13.52;;;6.63;;
42420;SDS011;28063;48.140;11.588;2023-12-04T05:22:07;12.40;;;5.40;;
42420;SDS011;28063;48.140;11.588;2023-12-04T05:24:33;9.95;;;6.05;;
42420;SDS011;28063;48.140;11.588;2023-12-04T05:27:00;12.55;;;5.82;;
42420;SDS011;28063;48.140;11.588;2023-12-04T05:29:27;9.50;;;5.28;;
42420;SDS011;28063;48.140;11.588;2023-12-04T05:31:53;11.55;;;6.10;;
42420;SDS011;28063;48.140;11.588;2023-12-04T05:34:19;9.82;;;4.93;;
42420;SDS011;28063;48.140;11.588;2023-12-04T05:36:45;9.98;;;5.22;;
42420;SDS011;28063;48.140;11.588;2023-12-04T05:39:11;9.10;;;4.70;;
42420;SDS011;28063;48.140;11.588;2023-12-04T05:41:37;11.20;;;5.28;;
42420;SDS011;28063;48.140;11.588;2023-12-04T05:44:03;11.60;;;5.68;;
42420;SDS011;28063;48.140;11.588;2023-12-04T05:46:29;9.15;;;5.18;;
42420;SDS011;28063;48.140;11.588;2023-12-04T05:48:57;8.60;;;4.82;;
42420;SDS011;28063;48.140;11.588;2023-12-04T05:51:23;8.45;;;4.63;;
42420;SDS011;28063;48.140;11.588;2023-12-04T05:53:49;10.75;;;4.82;;
42420;SDS011;28063;48.140;11.588;2023-12-04T05:56:15;6.90;;;3.97;;
42420;SDS011;28063;48.140;11.588;2023-12-04T05:58:41;7.78;;;4.43;;
42420;SDS011;28063;48.140;11.588;2023-12-04T06:01:07;8.10;;;4.18;;
42420;SDS011;28063;48.140;11.588;2023-12-04T06:03:33;9.77;;;4.43;;
42420;SDS011;28063;48.140;11.588;2023-12-04T06:06:00;6.57;;;3.67;;
42420;SDS011;28063;48.140;11.588;2023-12-04T06:08:26;6.97;;;3.92;;
42420;SDS011;28063;48.140;11.588;2023-12-04T06:10:52;7.18;;;3.75;;
42420;SDS011;28063;48.140;11.588;2023-12-04T06:13:18;8.52;;;4.05;;
42420;SDS011;28063;48.140;11.588;2023-12-04T06:15:44;8.15;;;3.83;;
42420;SDS011;28063;48.140;11.588;2023-12-04T06:18:10;7.30;;;3.97;;
42420;SDS011;28063;48.140;11.588;2023-12-04T06:20:36;7.00;;;3.97;;
42420;SDS011;28063;48.140;11.588;2023-12-04T06:23:03;9.80;;;4.50;;
42420;SDS011;28063;48.140;11.588;2023-12-04T06:25:29;10.02;;;4.80;;
42420;SDS011;28063;48.140;11.588;2023-12-04T06:27:55;7.63;;;4.60;;
42420;SDS011;28063;48.140;11.588;2023-12-04T06:30:22;7.88;;;4.30;;
42420;SDS011;28063;48.140;11.588;2023-12-04T06:32:48;8.02;;;4.10;;
42420;SDS011;28063;48.140;11.588;2023-12-04T06:35:15;7.57;;;4.00;;
42420;SDS011;28063;48.140;11.588;2023-12-04T06:37:41;7.25;;;3.90;;
42420;SDS011;28063;48.140;11.588;2023-12-04T06:40:08;6.55;;;3.97;;
42420;SDS011;28063;48.140;11.588;2023-12-04T06:42:36;7.70;;;4.35;;
42420;SDS011;28063;48.140;11.588;2023-12-04T06:45:03;8.90;;;5.03;;
42420;SDS011;28063;48.140;11.588;2023-12-04T06:47:31;5.65;;;3.60;;
42420;SDS011;28063;48.140;11.588;2023-12-04T06:49:57;7.70;;;4.35;;
42420;SDS011;28063;48.140;11.588;2023-12-04T06:52:23;9.98;;;4.38;;
42420;SDS011;28063;48.140;11.588;2023-12-04T06:54:49;7.93;;;4.65;;
42420;SDS011;28063;48.140;11.588;2023-12-04T06:57:16;9.88;;;4.40;;
42420;SDS011;28063;48.140;11.588;2023-12-04T06:59:42;7.20;;;4.07;;
42420;SDS011;28063;48.140;11.588;2023-12-04T07:02:08;8.77;;;4.40;;
42420;SDS011;28063;48.140;11.588;2023-12-04T07:04:35;6.70;;;4.18;;
42420;SDS011;28063;48.140;11.588;2023-12-04T07:07:02;8.32;;;3.70;;
42420;SDS011;28063;48.140;11.588;2023-12-04T07:09:33;7.63;;;4.25;;
42420;SDS011;28063;48.140;11.588;2023-12-04T07:12:00;7.75;;;4.13;;
42420;SDS011;28063;48.140;11.588;2023-12-04T07:14:27;9.20;;;3.90;;
42420;SDS011;28063;48.140;11.588;2023-12-04T07:16:53;7.95;;;4.18;;
42420;SDS011;28063;48.140;11.588;2023-12-04T07:19:20;7.90;;;3.92;;
42420;SDS011;28063;48.140;11.588;2023-12-04T07:21:47;6.30;;;3.80;;
42420;SDS011;28063;48.140;11.588;2023-12-04T07:24:14;7.18;;;4.10;;
42420;SDS011;28063;48.140;11.588;2023-12-04T07:26:41;8.75;;;4.60;;
42420;SDS011;28063;48.140;11.588;2023-12-04T07:29:07;6.75;;;3.60;;
42420;SDS011;28063;48.140;11.588;2023-12-04T07:31:34;8.10;;;3.90;;
42420;SDS011;28063;48.140;11.588;2023-12-04T07:34:00;5.82;;;3.70;;
42420;SDS011;28063;48.140;11.588;2023-12-04T07:36:27;6.95;;;3.88;;
42420;SDS011;28063;48.140;11.588;2023-12-04T07:38:53;7.57;;;4.20;;
42420;SDS011;28063;48.140;11.588;2023-12-04T07:41:20;6.65;;;4.10;;
42420;SDS011;28063;48.140;11.588;2023-12-04T07:43:47;7.35;;;3.95;;
42420;SDS011;28063;48.140;11.588;2023-12-04T07:46:13;7.28;;;4.07;;
42420;SDS011;28063;48.140;11.588;2023-12-04T07:48:39;8.13;;;4.55;;
42420;SDS011;28063;48.140;11.588;2023-12-04T07:51:05;8.18;;;4.88;;
42420;SDS011;28063;48.140;11.588;2023-12-04T07:53:32;7.57;;;4.82;;
42420;SDS011;28063;48.140;11.588;2023-12-04T07:56:01;7.47;;;4.82;;
42420;SDS011;28063;48.140;11.588;2023-12-04T07:58:31;8.75;;;4.75;;
42420;SDS011;28063;48.140;11.588;2023-12-04T08:00:57;8.73;;;4.80;;
42420;SDS011;28063;48.140;11.588;2023-12-04T08:03:24;10.55;;;5.57;;
42420;SDS011;28063;48.140;11.588;2023-12-04T08:05:50;12.18;;;5.75;;
42420;SDS011;28063;48.140;11.588;2023-12-04T08:08:17;8.23;;;4.80;;
42420;SDS011;28063;48.140;11.588;2023-12-04T08:10:43;11.80;;;5.38;;
42420;SDS011;28063;48.140;11.588;2023-12-04T08:13:09;11.15;;;5.80;;
42420;SDS011;28063;48.140;11.588;2023-12-04T08:15:35;9.73;;;5.07;;
42420;SDS011;28063;48.140;11.588;2023-12-04T08:18:01;9.05;;;4.85;;
42420;SDS011;28063;48.140;11.588;2023-12-04T08:20:27;8.80;;;4.50;;
42420;SDS011;28063;48.140;11.588;2023-12-04T08:22:54;7.57;;;4.35;;
42420;SDS011;28063;48.140;11.588;2023-12-04T08:25:20;8.23;;;4.45;;
42420;SDS011;28063;48.140;11.588;2023-12-04T08:27:46;7.65;;;3.88;;
42420;SDS011;28063;48.140;11.588;2023-12-04T08:30:14;11.57;;;4.82;;
42420;SDS011;28063;48.140;11.588;2023-12-04T08:32:40;6.53;;;3.95;;
42420;SDS011;28063;48.140;11.588;2023-12-04T08:35:07;9.68;;;4.45;;
42420;SDS011;28063;48.140;11.588;2023-12-04T08:37:33;8.45;;;5.13;;
42420;SDS011;28063;48.140;11.588;2023-12-04T08:39:59;10.88;;;5.75;;
42420;SDS011;28063;48.140;11.588;2023-12-04T08:42:25;9.65;;;5.20;;
42420;SDS011;28063;48.140;11.588;2023-12-04T08:44:51;9.68;;;4.80;;
42420;SDS011;28063;48.140;11.588;2023-12-04T08:47:18;10.75;;;5.80;;
42420;SDS011;28063;48.140;11.588;2023-12-04T08:49:44;9.55;;;4.95;;
42420;SDS011;28063;48.140;11.588;2023-12-04T08:52:10;12.10;;;6.25;;
42420;SDS011;28063;48.140;11.588;2023-12-04T08:54:40;11.25;;;5.57;;
42420;SDS011;28063;48.140;11.588;2023-12-04T08:57:09;8.15;;;4.57;;
42420;SDS011;28063;48.140;11.588;2023-12-04T08:59:35;8.98;;;5.32;;
42420;SDS011;28063;48.140;11.588;2023-12-04T09:02:01;9.30;;;4.93;;
42420;SDS011;28063;48.140;11.588;2023-12-04T09:04:29;8.38;;;5.03;;
42420;SDS011;28063;48.140;11.588;2023-12-04T09:06:56;8.95;;;5.10;;
42420;SDS011;28063;48.140;11.588;2023-12-04T09:09:22;9.07;;;4.38;;
42420;SDS011;28063;48.140;11.588;2023-12-04T09:11:49;8.27;;;4.43;;
42420;SDS011;28063;48.140;11.588;2023-12-04T09:14:15;7.65;;;4.53;;
42420;SDS011;28063;48.140;11.588;2023-12-04T09:16:42;9.43;;;5.90;;
42420;SDS011;28063;48.140;11.588;2023-12-04T09:19:08;9.55;;;5.38;;
42420;SDS011;28063;48.140;11.588;2023-12-04T09:21:35;9.85;;;5.32;;
42420;SDS011;28063;48.140;11.588;2023-12-04T09:24:02;11.05;;;5.47;;
42420;SDS011;28063;48.140;11.588;2023-12-04T09:26:28;10.45;;;5.97;;
42420;SDS011;28063;48.140;11.588;2023-12-04T09:28:54;8.65;;;5.35;;
42420;SDS011;28063;48.140;11.588;2023-12-04T09:31:21;10.00;;;5.78;;
42420;SDS011;28063;48.140;11.588;2023-12-04T09:33:47;8.55;;;4.72;;
42420;SDS011;28063;48.140;11.588;2023-12-04T09:36:13;8.90;;;5.20;;
42420;SDS011;28063;48.140;11.588;2023-12-04T09:38:39;6.53;;;4.28;;
42420;SDS011;28063;48.140;11.588;2023-12-04T09:41:06;9.32;;;4.97;;
42420;SDS011;28063;48.140;11.588;2023-12-04T09:43:34;10.00;;;5.35;;
42420;SDS011;28063;48.140;11.588;2023-12-04T09:46:00;11.32;;;6.10;;
42420;SDS011;28063;48.140;11.588;2023-12-04T09:48:27;10.18;;;5.00;;
42420;SDS011;28063;48.140;11.588;2023-12-04T09:50:53;10.43;;;5.90;;
42420;SDS011;28063;48.140;11.588;2023-12-04T09:53:20;8.57;;;4.97;;
42420;SDS011;28063;48.140;11.588;2023-12-04T09:55:49;9.15;;;5.43;;
42420;SDS011;28063;48.140;11.588;2023-12-04T09:58:15;6.85;;;4.88;;
42420;SDS011;28063;48.140;11.588;2023-12-04T10:00:44;8.48;;;5.07;;
42420;SDS011;28063;48.140;11.588;2023-12-04T10:03:11;8.52;;;4.78;;
42420;SDS011;28063;48.140;11.588;2023-12-04T10:05:40;10.88;;;5.63;;
42420;SDS011;28063;48.140;11.588;2023-12-04T10:08:09;9.43;;;4.88;;
42420;SDS011;28063;48.140;11.588;2023-12-04T10:10:35;12.43;;;6.10;;
42420;SDS011;28063;48.140;11.588;2023-12-04T10:13:02;9.07;;;5.40;;
42420;SDS011;28063;48.140;11.588;2023-12-04T10:15:28;10.38;;;6.28;;
42420;SDS011;28063;48.140;11.588;2023-12-04T10:17:55;12.38;;;6.25;;
42420;SDS011;28063;48.140;11.588;2023-12-04T10:20:21;13.32;;;6.80;;
42420;SDS011;28063;48.140;11.588;2023-12-04T10:22:56;11.73;;;6.60;;
42420;SDS011;28063;48.140;11.588;2023-12-04T10:25:23;12.38;;;7.30;;
42420;SDS011;28063;48.140;11.588;2023-12-04T10:27:54;14.90;;;8.73;;
42420;SDS011;28063;48.140;11.588;2023-12-04T10:30:24;14.63;;;8.15;;
42420;SDS011;28063;48.140;11.588;2023-12-04T10:32:53;16.45;;;8.68;;
42420;SDS011;28063;48.140;11.588;2023-12-04T10:35:20;18.25;;;9.18;;
42420;SDS011;28063;48.140;11.588;2023-12-04T10:37:46;15.77;;;9.38;;
42420;SDS011;28063;48.140;11.588;2023-12-04T10:40:12;18.05;;;9.38;;
42420;SDS011;28063;48.140;11.588;2023-12-04T10:42:48;17.00;;;9.00;;
42420;SDS011;28063;48.140;11.588;2023-12-04T10:45:14;14.32;;;8.20;;
42420;SDS011;28063;48.140;11.588;2023-12-04T10:47:40;12.75;;;7.90;;
42420;SDS011;28063;48.140;11.588;2023-12-04T10:50:06;14.60;;;8.25;;
42420;SDS011;28063;48.140;11.588;2023-12-04T10:52:33;17.25;;;7.97;;
42420;SDS011;28063;48.140;11.588;2023-12-04T10:54:59;14.52;;;7.70;;
42420;SDS011;28063;48.140;11.588;2023-12-04T10:57:27;12.13;;;7.03;;
42420;SDS011;28063;48.140;11.588;2023-12-04T10:59:56;12.88;;;7.72;;
42420;SDS011;28063;48.140;11.588;2023-12-04T11:02:23;11.88;;;7.07;;
42420;SDS011;28063;48.140;11.588;2023-12-04T11:04:51;11.38;;;7.00;;
42420;SDS011;28063;48.140;11.588;2023-12-04T11:07:20;10.70;;;6.40;;
42420;SDS011;28063;48.140;11.588;2023-12-04T11:09:48;25.83;;;13.10;;
42420;SDS011;28063;48.140;11.588;2023-12-04T11:12:16;27.70;;;12.32;;
42420;SDS011;28063;48.140;11.588;2023-12-04T11:14:44;18.70;;;11.00;;
42420;SDS011;28063;48.140;11.588;2023-12-04T11:17:13;16.85;;;10.90;;
42420;SDS011;28063;48.140;11.588;2023-12-04T11:19:54;20.73;;;11.88;;
42420;SDS011;28063;48.140;11.588;2023-12-04T11:22:21;19.48;;;10.23;;
42420;SDS011;28063;48.140;11.588;2023-12-04T11:24:48;18.05;;;10.73;;
42420;SDS011;28063;48.140;11.588;2023-12-04T11:27:15;17.38;;;10.65;;
42420;SDS011;28063;48.140;11.588;2023-12-04T11:29:42;18.60;;;9.73;;
42420;SDS011;28063;48.140;11.588;2023-12-04T11:32:12;17.10;;;9.13;;
42420;SDS011;28063;48.140;11.588;2023-12-04T11:34:46;17.52;;;10.05;;
42420;SDS011;28063;48.140;11.588;2023-12-04T11:37:13;17.98;;;10.27;;
42420;SDS011;28063;48.140;11.588;2023-12-04T11:39:39;16.60;;;10.00;;
42420;SDS011;28063;48.140;11.588;2023-12-04T11:42:08;17.55;;;9.48;;
42420;SDS011;28063;48.140;11.588;2023-12-04T11:47:04;12.98;;;7.60;;
42420;SDS011;28063;48.140;11.588;2023-12-04T11:49:31;13.65;;;7.82;;
42420;SDS011;28063;48.140;11.588;2023-12-04T11:51:58;13.18;;;8.18;;
42420;SDS011;28063;48.140;11.588;2023-12-04T11:54:25;15.40;;;8.88;;
42420;SDS011;28063;48.140;11.588;2023-12-04T11:57:25;18.60;;;9.98;;
42420;SDS011;28063;48.140;11.588;2023-12-04T11:59:44;22.67;;;11.05;;
42420;SDS011;28063;48.140;11.588;2023-12-04T12:02:10;18.35;;;9.43;;
42420;SDS011;28063;48.140;11.588;2023-12-04T12:04:37;17.83;;;10.07;;
42420;SDS011;28063;48.140;11.588;2023-12-04T12:07:04;15.80;;;9.20;;
42420;SDS011;28063;48.140;11.588;2023-12-04T12:09:31;19.52;;;10.10;;
42420;SDS011;28063;48.140;11.588;2023-12-04T12:12:01;17.52;;;9.45;;
42420;SDS011;28063;48.140;11.588;2023-12-04T12:14:28;17.65;;;8.82;;
42420;SDS011;28063;48.140;11.588;2023-12-04T12:16:55;18.33;;;9.57;;
42420;SDS011;28063;48.140;11.588;2023-12-04T12:19:21;19.73;;;10.38;;
42420;SDS011;28063;48.140;11.588;2023-12-04T12:21:48;19.80;;;11.35;;
42420;SDS011;28063;48.140;11.588;2023-12-04T12:24:14;17.63;;;9.80;;
42420;SDS011;28063;48.140;11.588;2023-12-04T12:26:40;17.02;;;9.77;;
42420;SDS011;28063;48.140;11.588;2023-12-04T12:29:08;18.13;;;9.55;;
42420;SDS011;28063;48.140;11.588;2023-12-04T12:31:34;18.60;;;10.32;;
42420;SDS011;28063;48.140;11.588;2023-12-04T12:34:01;21.17;;;11.07;;
42420;SDS011;28063;48.140;11.588;2023-12-04T12:36:28;16.50;;;9.85;;
42420;SDS011;28063;48.140;11.588;2023-12-04T12:38:54;16.70;;;9.98;;
42420;SDS011;28063;48.140;11.588;2023-12-04T12:41:21;17.05;;;9.98;;
42420;SDS011;28063;48.140;11.588;2023-12-04T12:43:50;16.20;;;9.38;;
42420;SDS011;28063;48.140;11.588;2023-12-04T12:46:17;19.05;;;10.05;;
42420;SDS011;28063;48.140;11.588;2023-12-04T12:48:46;20.60;;;10.30;;
42420;SDS011;28063;48.140;11.588;2023-12-04T12:51:12;16.02;;;9.30;;
42420;SDS011;28063;48.140;11.588;2023-12-04T12:53:39;16.58;;;9.80;;
42420;SDS011;28063;48.140;11.588;2023-12-04T12:56:05;15.43;;;9.35;;
42420;SDS011;28063;48.140;11.588;2023-12-04T12:58:33;15.73;;;9.35;;
42420;SDS011;28063;48.140;11.588;2023-12-04T13:01:00;16.83;;;10.70;;
42420;SDS011;28063;48.140;11.588;2023-12-04T13:03:27;17.77;;;9.85;;
42420;SDS011;28063;48.140;11.588;2023-12-04T13:05:53;20.58;;;10.57;;
42420;SDS011;28063;48.140;11.588;2023-12-04T13:08:20;21.85;;;11.55;;
42420;SDS011;28063;48.140;11.588;2023-12-04T13:10:46;18.20;;;10.18;;
42420;SDS011;28063;48.140;11.588;2023-12-04T13:13:13;17.73;;;9.73;;
42420;SDS011;28063;48.140;11.588;2023-12-04T13:15:42;20.23;;;10.20;;
42420;SDS011;28063;48.140;11.588;2023-12-04T13:18:08;16.33;;;9.48;;
42420;SDS011;28063;48.140;11.588;2023-12-04T13:20:34;14.45;;;9.10;;
42420;SDS011;28063;48.140;11.588;2023-12-04T13:23:01;13.63;;;8.02;;
42420;SDS011;28063;48.140;11.588;2023-12-04T13:25:27;15.40;;;8.73;;
42420;SDS011;28063;48.140;11.588;2023-12-04T13:27:53;15.40;;;8.65;;
42420;SDS011;28063;48.140;11.588;2023-12-04T13:30:20;17.42;;;9.88;;
42420;SDS011;28063;48.140;11.588;2023-12-04T13:32:46;15.15;;;9.73;;
42420;SDS011;28063;48.140;11.588;2023-12-04T13:35:15;19.40;;;11.38;;
42420;SDS011;28063;48.140;11.588;2023-12-04T13:37:41;21.83;;;11.07;;
42420;SDS011;28063;48.140;11.588;2023-12-04T13:40:08;26.63;;;12.85;;
42420;SDS011;28063;48.140;11.588;2023-12-04T13:42:41;25.48;;;12.95;;
42420;SDS011;28063;48.140;11.588;2023-12-04T13:45:26;22.52;;;12.07;;
42420;SDS011;28063;48.140;11.588;2023-12-04T13:47:52;24.92;;;12.73;;
42420;SDS011;28063;48.140;11.588;2023-12-04T13:50:18;20.90;;;11.52;;
42420;SDS011;28063;48.140;11.588;2023-12-04T13:52:44;22.25;;;11.02;;
42420;SDS011;28063;48.140;11.588;2023-12-04T13:55:19;20.23;;;10.48;;
42420;SDS011;28063;48.140;11.588;2023-12-04T13:57:51;24.73;;;10.35;;
42420;SDS011;28063;48.140;11.588;2023-12-04T14:00:21;17.60;;;9.98;;
42420;SDS011;28063;48.140;11.588;2023-12-04T14:02:47;21.15;;;9.73;;
42420;SDS011;28063;48.140;11.588;2023-12-04T14:05:13;19.95;;;11.25;;
42420;SDS011;28063;48.140;11.588;2023-12-04T14:07:41;18.40;;;9.68;;
42420;SDS011;28063;48.140;11.588;2023-12-04T14:10:10;20.80;;;10.10;;
42420;SDS011;28063;48.140;11.588;2023-12-04T14:12:36;21.85;;;11.82;;
42420;SDS011;28063;48.140;11.588;2023-12-04T14:15:02;25.10;;;12.07;;
42420;SDS011;28063;48.140;11.588;2023-12-04T14:17:29;18.20;;;10.63;;
42420;SDS011;28063;48.140;11.588;2023-12-04T14:19:55;17.40;;;10.40;;
42420;SDS011;28063;48.140;11.588;2023-12-04T14:22:21;19.15;;;9.82;;
42420;SDS011;28063;48.140;11.588;2023-12-04T14:24:47;20.98;;;10.80;;
42420;SDS011;28063;48.140;11.588;2023-12-04T14:27:13;17.42;;;9.50;;